Time;durP1;ratioP1;P1;durP2;ratioP2;P2;SDS_P1;SDS_P2;PMS_P1;PMS_P2;Temp;Humidity;BMP_temperature;BMP_pressure;BME280_temperature;BME280_humidity;BME280_pressure;Samples;Min_cycle;Max_cycle;Signal;HPM_P1;HPM_P2
2022/01/13 00:00:31;;;;;;;62.55;20.08;;;;;;;;;;5105046;28;20032;-83
2022/01/13 00:02:56;;;;;;;63.10;20.88;;;;;;;;;;5097061;28;20027;-82
2022/01/13 00:05:28;;;;;;;68.32;20.52;;;;;;;;;;5081157;28;20385;-86
2022/01/13 00:07:55;;;;;;;64.80;19.40;;;;;;;;;;5080900;28;20135;-85
2022/01/13 00:10:22;;;;;;;65.40;20.05;;;;;;;;;;5083967;28;20119;-85
2022/01/13 00:12:47;;;;;;;65.03;21.05;;;;;;;;;;5084272;28;20481;-83
2022/01/13 00:17:57;;;;;;;65.38;19.92;;;;;;;;;;5105108;28;20028;-83
2022/01/13 00:23:40;;;;;;;64.03;20.42;;;;;;;;;;5103065;27;20038;-85
2022/01/13 00:25:37;;;;;;;69.55;21.55;;;;;;;;;;5097277;28;20130;-85
2022/01/13 00:28:13;;;;;;;67.97;21.15;;;;;;;;;;5079015;28;20036;-84
2022/01/13 00:30:39;;;;;;;63.67;21.02;;;;;;;;;;5081577;28;20088;-85
2022/01/13 00:33:04;;;;;;;59.78;20.58;;;;;;;;;;5085059;28;20040;-83
2022/01/13 00:35:30;;;;;;;44.67;17.17;;;;;;;;;;5086649;28;20050;-82
2022/01/13 00:37:55;;;;;;;47.65;16.88;;;;;;;;;;5106819;28;20032;-82
2022/01/13 00:40:20;;;;;;;42.53;16.08;;;;;;;;;;5102558;28;20798;-83
2022/01/13 00:42:46;;;;;;;38.78;13.95;;;;;;;;;;5092964;28;20050;-85
2022/01/13 00:45:14;;;;;;;36.40;14.77;;;;;;;;;;5089348;28;20070;-82
2022/01/13 00:47:40;;;;;;;42.28;14.85;;;;;;;;;;5088901;28;20484;-85
2022/01/13 00:50:07;;;;;;;39.85;14.93;;;;;;;;;;5084722;28;20126;-84
2022/01/13 00:52:32;;;;;;;39.70;15.43;;;;;;;;;;5081445;28;20450;-82
2022/01/13 00:54:58;;;;;;;40.08;14.77;;;;;;;;;;5099768;28;20054;-84
2022/01/13 00:57:27;;;;;;;36.65;14.48;;;;;;;;;;5081910;28;20495;-83
2022/01/13 00:59:53;;;;;;;41.00;15.18;;;;;;;;;;5103438;28;20045;-82
2022/01/13 01:02:18;;;;;;;40.78;14.63;;;;;;;;;;5080017;28;20040;-85
2022/01/13 01:04:44;;;;;;;36.00;14.45;;;;;;;;;;5090324;28;20115;-84
2022/01/13 01:07:09;;;;;;;44.35;15.98;;;;;;;;;;5083515;28;20063;-83
2022/01/13 01:09:40;;;;;;;47.05;16.70;;;;;;;;;;5087675;28;20126;-85
2022/01/13 01:12:08;;;;;;;40.75;15.73;;;;;;;;;;5082437;28;20519;-83
2022/01/13 01:14:36;;;;;;;40.40;14.48;;;;;;;;;;5081251;28;20084;-85
2022/01/13 01:17:02;;;;;;;38.05;15.93;;;;;;;;;;5081572;28;20043;-82
2022/01/13 01:19:29;;;;;;;40.78;15.77;;;;;;;;;;5095863;28;20031;-82
2022/01/13 01:22:29;;;;;;;37.50;15.68;;;;;;;;;;5093667;28;20032;-84
2022/01/13 01:27:44;;;;;;;38.90;14.45;;;;;;;;;;5089170;28;20056;-83
2022/01/13 01:32:51;;;;;;;32.70;13.10;;;;;;;;;;5092604;28;20035;-85
2022/01/13 01:35:18;;;;;;;32.58;13.88;;;;;;;;;;5089254;28;20080;-82
2022/01/13 01:37:44;;;;;;;28.95;13.40;;;;;;;;;;5102646;28;20110;-83
2022/01/13 01:40:13;;;;;;;31.80;13.07;;;;;;;;;;5080700;28;20023;-86
2022/01/13 01:42:40;;;;;;;26.83;12.15;;;;;;;;;;5083548;28;20024;-84
2022/01/13 01:45:07;;;;;;;31.08;12.77;;;;;;;;;;5087146;28;20062;-85
2022/01/13 01:47:34;;;;;;;27.77;12.38;;;;;;;;;;5078573;28;20027;-83
2022/01/13 01:50:09;;;;;;;25.75;10.95;;;;;;;;;;5103915;28;20027;-84
2022/01/13 01:52:35;;;;;;;26.02;11.82;;;;;;;;;;5096527;28;20049;-83
2022/01/13 01:55:01;;;;;;;32.53;12.23;;;;;;;;;;5076695;28;20027;-83
2022/01/13 01:57:27;;;;;;;27.00;11.48;;;;;;;;;;5084686;28;20047;-85
2022/01/13 01:59:53;;;;;;;29.63;12.80;;;;;;;;;;5089448;28;20036;-83
2022/01/13 02:02:20;;;;;;;29.45;12.52;;;;;;;;;;5085283;28;20028;-83
2022/01/13 02:04:46;;;;;;;29.60;12.20;;;;;;;;;;5074367;28;20032;-82
2022/01/13 02:07:13;;;;;;;24.67;11.35;;;;;;;;;;5081697;28;20461;-83
2022/01/13 02:09:41;;;;;;;28.25;13.25;;;;;;;;;;5080710;28;20038;-85
2022/01/13 02:12:12;;;;;;;25.40;11.40;;;;;;;;;;5082723;28;20023;-83
2022/01/13 02:14:55;;;;;;;30.00;12.45;;;;;;;;;;5091893;28;20031;-83
2022/01/13 02:17:26;;;;;;;27.58;12.50;;;;;;;;;;5088077;28;20024;-85
2022/01/13 02:19:54;;;;;;;32.95;12.70;;;;;;;;;;5096052;28;20039;-82
2022/01/13 02:22:20;;;;;;;34.53;13.00;;;;;;;;;;5090233;28;20039;-85
2022/01/13 02:24:45;;;;;;;34.20;13.05;;;;;;;;;;5086106;28;20019;-85
2022/01/13 02:27:11;;;;;;;33.28;13.43;;;;;;;;;;5086504;28;20044;-83
2022/01/13 02:29:36;;;;;;;34.05;13.98;;;;;;;;;;5082610;28;20024;-85
2022/01/13 02:32:04;;;;;;;30.45;14.63;;;;;;;;;;5081683;28;20066;-83
2022/01/13 02:34:29;;;;;;;33.75;13.20;;;;;;;;;;5085736;28;20015;-85
2022/01/13 02:36:56;;;;;;;32.13;14.10;;;;;;;;;;5079567;28;20035;-82
2022/01/13 02:39:23;;;;;;;31.58;13.75;;;;;;;;;;5080988;28;20055;-82
2022/01/13 02:41:48;;;;;;;32.28;13.57;;;;;;;;;;5078995;28;20019;-83
2022/01/13 02:44:18;;;;;;;32.95;14.13;;;;;;;;;;5093688;28;20028;-82
2022/01/13 02:47:06;;;;;;;35.65;14.35;;;;;;;;;;5081164;28;20031;-85
2022/01/13 02:49:29;;;;;;;33.67;13.85;;;;;;;;;;5098934;28;20114;-83
2022/01/13 02:51:55;;;;;;;33.15;13.80;;;;;;;;;;5081589;28;20549;-82
2022/01/13 02:54:21;;;;;;;35.42;13.70;;;;;;;;;;5094407;28;20122;-84
2022/01/13 02:56:46;;;;;;;32.67;14.15;;;;;;;;;;5100857;28;20546;-82
2022/01/13 02:59:12;;;;;;;32.10;12.70;;;;;;;;;;5081157;28;20068;-83
2022/01/13 03:01:39;;;;;;;33.25;13.32;;;;;;;;;;5103186;28;20034;-83
2022/01/13 03:04:07;;;;;;;38.78;14.73;;;;;;;;;;5082595;28;20066;-85
2022/01/13 03:06:36;;;;;;;29.77;12.38;;;;;;;;;;5078702;28;20028;-85
2022/01/13 03:09:07;;;;;;;33.63;14.23;;;;;;;;;;5084342;28;20034;-85
2022/01/13 03:11:35;;;;;;;33.17;14.35;;;;;;;;;;5075831;28;20091;-83
2022/01/13 03:14:03;;;;;;;33.67;14.35;;;;;;;;;;5083513;28;20024;-85
2022/01/13 03:16:29;;;;;;;34.72;14.77;;;;;;;;;;5097828;27;20485;-86
2022/01/13 03:18:54;;;;;;;33.60;14.75;;;;;;;;;;5085064;28;20073;-85
2022/01/13 03:21:20;;;;;;;35.30;14.68;;;;;;;;;;5082300;28;20035;-82
2022/01/13 03:23:45;;;;;;;34.88;14.25;;;;;;;;;;5084972;28;20062;-83
2022/01/13 03:26:11;;;;;;;34.50;14.35;;;;;;;;;;5081972;28;20032;-85
2022/01/13 03:28:50;;;;;;;33.17;14.60;;;;;;;;;;5085857;28;20055;-83
2022/01/13 03:31:17;;;;;;;36.22;14.15;;;;;;;;;;5098565;28;20029;-83
2022/01/13 03:33:42;;;;;;;32.67;14.30;;;;;;;;;;5090343;28;20084;-85
2022/01/13 03:36:08;;;;;;;36.53;15.68;;;;;;;;;;5081697;28;20032;-85
2022/01/13 03:38:35;;;;;;;34.35;14.82;;;;;;;;;;5083177;28;20028;-86
2022/01/13 03:41:00;;;;;;;34.58;14.82;;;;;;;;;;5078817;28;20512;-85
2022/01/13 03:43:26;;;;;;;31.20;13.43;;;;;;;;;;5082663;28;20048;-82
2022/01/13 03:45:51;;;;;;;32.95;14.23;;;;;;;;;;5081755;28;20024;-86
2022/01/13 03:48:16;;;;;;;34.28;13.90;;;;;;;;;;5081319;28;20039;-82
2022/01/13 03:50:43;;;;;;;34.22;14.48;;;;;;;;;;5091294;28;20081;-85
2022/01/13 03:53:27;;;;;;;32.92;13.45;;;;;;;;;;5091878;28;20031;-85
2022/01/13 03:56:20;;;;;;;33.70;14.15;;;;;;;;;;5082599;28;20776;-86
2022/01/13 03:59:41;;;;;;;32.75;14.65;;;;;;;;;;5086078;28;20027;-85
2022/01/13 04:02:09;;;;;;;33.63;13.30;;;;;;;;;;5087215;28;20032;-85
2022/01/13 04:04:45;;;;;;;30.20;13.20;;;;;;;;;;5086123;28;20127;-85
2022/01/13 04:07:21;;;;;;;34.47;14.80;;;;;;;;;;5083298;28;20081;-82
2022/01/13 04:09:46;;;;;;;30.15;13.25;;;;;;;;;;5090761;28;20031;-86
2022/01/13 04:12:13;;;;;;;36.58;14.32;;;;;;;;;;5080671;28;20045;-82
2022/01/13 04:17:21;;;;;;;31.92;13.73;;;;;;;;;;5104069;28;20122;-82
2022/01/13 04:19:48;;;;;;;32.55;13.20;;;;;;;;;;5086223;27;20416;-84
2022/01/13 04:22:15;;;;;;;29.38;12.55;;;;;;;;;;5101622;27;20389;-82
2022/01/13 04:24:45;;;;;;;31.92;12.80;;;;;;;;;;5089001;28;20065;-83
2022/01/13 04:27:13;;;;;;;33.20;14.05;;;;;;;;;;5083550;28;20050;-84
2022/01/13 04:29:41;;;;;;;33.58;13.98;;;;;;;;;;5086707;28;20041;-84
2022/01/13 04:32:07;;;;;;;29.38;13.13;;;;;;;;;;5087842;28;20016;-85
2022/01/13 04:34:33;;;;;;;29.80;12.57;;;;;;;;;;5079636;28;20662;-86
2022/01/13 04:37:00;;;;;;;29.77;12.75;;;;;;;;;;5086477;28;20125;-83
2022/01/13 04:39:28;;;;;;;28.00;12.82;;;;;;;;;;5103970;28;20023;-83
2022/01/13 04:41:55;;;;;;;27.80;13.68;;;;;;;;;;5101973;28;20393;-85
2022/01/13 04:44:22;;;;;;;29.08;13.30;;;;;;;;;;5080048;28;20765;-83
2022/01/13 04:46:50;;;;;;;28.58;12.93;;;;;;;;;;5106977;28;20058;-83
2022/01/13 04:49:18;;;;;;;32.38;13.50;;;;;;;;;;5081446;28;20028;-82
2022/01/13 04:51:45;;;;;;;28.05;12.80;;;;;;;;;;5095854;27;20043;-83
2022/01/13 04:54:11;;;;;;;28.90;12.48;;;;;;;;;;5082481;28;20028;-82
2022/01/13 04:56:43;;;;;;;27.67;12.15;;;;;;;;;;5084981;28;20039;-82
2022/01/13 04:59:10;;;;;;;26.98;13.15;;;;;;;;;;5088224;28;20537;-84
2022/01/13 05:01:37;;;;;;;28.13;12.88;;;;;;;;;;5080319;28;20063;-84
2022/01/13 05:04:04;;;;;;;26.42;11.50;;;;;;;;;;5103489;28;20494;-85
2022/01/13 05:06:30;;;;;;;24.20;12.07;;;;;;;;;;5085706;28;20026;-82
2022/01/13 05:08:55;;;;;;;29.58;12.88;;;;;;;;;;5085812;28;20036;-83
2022/01/13 05:11:21;;;;;;;26.25;11.50;;;;;;;;;;5103246;28;20020;-82
2022/01/13 05:13:46;;;;;;;25.38;11.90;;;;;;;;;;5080941;28;20039;-82
2022/01/13 05:16:20;;;;;;;25.08;11.20;;;;;;;;;;5107054;28;20031;-86
2022/01/13 05:18:54;;;;;;;26.27;12.88;;;;;;;;;;5083181;28;20044;-86
2022/01/13 05:21:23;;;;;;;25.25;11.50;;;;;;;;;;5088493;28;20031;-85
2022/01/13 05:23:49;;;;;;;24.60;11.55;;;;;;;;;;5087716;28;20039;-81
2022/01/13 05:26:15;;;;;;;26.42;12.25;;;;;;;;;;5085414;28;20032;-85
2022/01/13 05:28:41;;;;;;;32.22;13.43;;;;;;;;;;5081918;28;20051;-83
2022/01/13 05:31:07;;;;;;;31.58;13.60;;;;;;;;;;5083689;28;20035;-86
2022/01/13 05:33:33;;;;;;;22.13;10.82;;;;;;;;;;5084169;28;20023;-82
2022/01/13 05:36:00;;;;;;;24.42;11.20;;;;;;;;;;5082851;28;20527;-85
2022/01/13 05:38:25;;;;;;;22.98;10.75;;;;;;;;;;5087349;28;20043;-85
2022/01/13 05:40:51;;;;;;;22.23;10.82;;;;;;;;;;5085503;28;20497;-82
2022/01/13 05:43:16;;;;;;;22.83;10.60;;;;;;;;;;5087933;28;20024;-82
2022/01/13 05:45:41;;;;;;;22.42;10.75;;;;;;;;;;5084786;28;20092;-81
2022/01/13 05:48:07;;;;;;;22.75;11.10;;;;;;;;;;5091512;28;20036;-85
2022/01/13 05:50:33;;;;;;;24.00;10.65;;;;;;;;;;5077187;28;20059;-85
2022/01/13 05:52:59;;;;;;;23.77;11.40;;;;;;;;;;5107469;28;20044;-86
2022/01/13 05:55:25;;;;;;;26.48;11.80;;;;;;;;;;5087041;28;20042;-84
2022/01/13 05:57:50;;;;;;;23.05;11.25;;;;;;;;;;5101712;28;20099;-83
2022/01/13 06:00:18;;;;;;;22.25;11.10;;;;;;;;;;5085021;28;20035;-83
2022/01/13 06:02:45;;;;;;;23.27;11.13;;;;;;;;;;5105794;28;20489;-85
2022/01/13 06:05:11;;;;;;;23.10;10.63;;;;;;;;;;5085961;28;20032;-85
2022/01/13 06:07:37;;;;;;;28.13;12.20;;;;;;;;;;5102005;28;20397;-83
2022/01/13 06:10:04;;;;;;;25.95;11.05;;;;;;;;;;5080009;28;20081;-85
2022/01/13 06:12:33;;;;;;;22.98;10.75;;;;;;;;;;5087969;28;20027;-85
2022/01/13 06:15:00;;;;;;;23.08;10.70;;;;;;;;;;5087642;28;20401;-84
2022/01/13 06:17:25;;;;;;;21.83;10.50;;;;;;;;;;5098790;28;20024;-85
2022/01/13 06:19:50;;;;;;;21.30;10.57;;;;;;;;;;5085164;28;20073;-82
2022/01/13 06:22:16;;;;;;;23.20;10.88;;;;;;;;;;5076410;28;20558;-84
2022/01/13 06:24:41;;;;;;;21.85;10.52;;;;;;;;;;5080534;28;20122;-83
2022/01/13 06:27:06;;;;;;;21.38;10.10;;;;;;;;;;5080097;28;21380;-82
2022/01/13 06:29:32;;;;;;;20.23;10.65;;;;;;;;;;5081706;28;20024;-85
2022/01/13 06:31:57;;;;;;;24.10;11.60;;;;;;;;;;5080599;27;20221;-84
2022/01/13 06:34:23;;;;;;;19.38;10.27;;;;;;;;;;5088851;27;20026;-82
2022/01/13 06:36:48;;;;;;;23.23;10.30;;;;;;;;;;5085423;28;20066;-83
2022/01/13 06:39:14;;;;;;;20.42;9.48;;;;;;;;;;5089081;28;20036;-86
2022/01/13 06:41:40;;;;;;;21.30;9.55;;;;;;;;;;5099712;28;20474;-83
2022/01/13 06:44:06;;;;;;;19.08;9.20;;;;;;;;;;5079105;28;20084;-83
2022/01/13 06:46:32;;;;;;;22.20;10.80;;;;;;;;;;5084206;28;20078;-83
2022/01/13 06:48:57;;;;;;;22.35;10.43;;;;;;;;;;5077136;28;20048;-85
2022/01/13 06:51:22;;;;;;;22.88;10.98;;;;;;;;;;5099053;28;20031;-85
2022/01/13 06:53:48;;;;;;;19.25;9.70;;;;;;;;;;5081566;28;20032;-83
2022/01/13 06:56:13;;;;;;;21.40;10.52;;;;;;;;;;5083832;28;20501;-83
2022/01/13 06:58:39;;;;;;;23.77;10.43;;;;;;;;;;5079420;28;20024;-85
2022/01/13 07:01:04;;;;;;;21.73;10.90;;;;;;;;;;5084180;28;20533;-82
2022/01/13 07:03:30;;;;;;;21.90;10.82;;;;;;;;;;5079748;28;20023;-85
2022/01/13 07:05:55;;;;;;;23.73;10.32;;;;;;;;;;5105974;27;20035;-84
2022/01/13 07:08:21;;;;;;;20.48;9.95;;;;;;;;;;5087434;28;20922;-86
2022/01/13 07:10:46;;;;;;;23.98;10.73;;;;;;;;;;5095332;28;20060;-83
2022/01/13 07:13:11;;;;;;;20.27;10.07;;;;;;;;;;5073919;28;20128;-84
2022/01/13 07:15:37;;;;;;;21.83;10.45;;;;;;;;;;5078410;28;20027;-82
2022/01/13 07:18:02;;;;;;;20.77;9.55;;;;;;;;;;5099896;28;20547;-84
2022/01/13 07:20:28;;;;;;;22.08;10.80;;;;;;;;;;5099889;28;20059;-83
2022/01/13 07:22:54;;;;;;;20.25;9.48;;;;;;;;;;5090691;28;20032;-82
2022/01/13 07:25:19;;;;;;;24.80;11.18;;;;;;;;;;5083524;28;20455;-82
2022/01/13 07:27:45;;;;;;;21.38;10.15;;;;;;;;;;5104194;28;20508;-85
2022/01/13 07:30:11;;;;;;;23.23;10.65;;;;;;;;;;5082110;28;20394;-82
2022/01/13 07:32:38;;;;;;;22.00;10.43;;;;;;;;;;5083791;28;20032;-82
2022/01/13 07:35:05;;;;;;;25.90;11.02;;;;;;;;;;5100276;28;20053;-85
2022/01/13 07:37:30;;;;;;;25.42;10.98;;;;;;;;;;5101626;28;20019;-83
2022/01/13 07:39:56;;;;;;;22.85;10.60;;;;;;;;;;5074646;28;20020;-84
2022/01/13 07:42:23;;;;;;;23.08;10.80;;;;;;;;;;5072719;28;20544;-84
2022/01/13 07:44:49;;;;;;;23.77;10.55;;;;;;;;;;5072686;28;20024;-84
2022/01/13 07:47:14;;;;;;;21.70;10.48;;;;;;;;;;5081830;28;20496;-86
2022/01/13 07:49:40;;;;;;;21.60;8.60;;;;;;;;;;5102599;28;20021;-84
2022/01/13 07:52:05;;;;;;;25.27;10.23;;;;;;;;;;5074784;28;20866;-86
2022/01/13 07:54:31;;;;;;;21.65;10.38;;;;;;;;;;5097300;28;20027;-86
2022/01/13 07:56:58;;;;;;;21.55;10.20;;;;;;;;;;5095149;28;20205;-84
2022/01/13 07:59:31;;;;;;;24.25;10.07;;;;;;;;;;5084751;28;20031;-86
2022/01/13 08:01:57;;;;;;;27.73;11.47;;;;;;;;;;5081970;28;20043;-83
2022/01/13 08:04:23;;;;;;;21.88;9.73;;;;;;;;;;5090744;28;20406;-83
2022/01/13 08:06:48;;;;;;;21.27;9.63;;;;;;;;;;5088923;28;20027;-85
2022/01/13 08:09:13;;;;;;;20.20;9.35;;;;;;;;;;5086838;28;20027;-85
2022/01/13 08:11:39;;;;;;;23.02;9.68;;;;;;;;;;5084533;28;20047;-84
2022/01/13 08:14:04;;;;;;;22.10;10.77;;;;;;;;;;5107214;28;20081;-86
2022/01/13 08:16:34;;;;;;;22.08;10.50;;;;;;;;;;5103291;28;20032;-85
2022/01/13 08:21:43;;;;;;;20.55;10.27;;;;;;;;;;5103089;28;20055;-85
2022/01/13 08:24:08;;;;;;;24.48;10.05;;;;;;;;;;5080449;28;20044;-85
2022/01/13 08:26:34;;;;;;;21.23;10.43;;;;;;;;;;5086414;28;20104;-86
2022/01/13 08:28:59;;;;;;;23.35;10.73;;;;;;;;;;5084130;28;20397;-83
2022/01/13 08:31:24;;;;;;;28.58;11.98;;;;;;;;;;5088624;28;20038;-83
2022/01/13 08:33:50;;;;;;;23.23;10.57;;;;;;;;;;5092630;28;20030;-86
2022/01/13 08:36:15;;;;;;;26.17;10.60;;;;;;;;;;5096823;28;20064;-84
2022/01/13 08:38:40;;;;;;;27.30;12.60;;;;;;;;;;5083061;28;20028;-86
2022/01/13 08:41:06;;;;;;;25.27;10.90;;;;;;;;;;5086205;28;20016;-83
2022/01/13 08:43:33;;;;;;;24.15;11.57;;;;;;;;;;5083895;28;20477;-85
2022/01/13 08:45:59;;;;;;;30.73;13.48;;;;;;;;;;5088003;28;20035;-83
2022/01/13 08:48:25;;;;;;;26.08;12.13;;;;;;;;;;5092130;28;20035;-85
2022/01/13 08:50:51;;;;;;;24.42;10.60;;;;;;;;;;5089888;28;20107;-83
2022/01/13 08:53:18;;;;;;;32.72;16.58;;;;;;;;;;5096577;28;20236;-85
2022/01/13 08:55:55;;;;;;;26.38;14.02;;;;;;;;;;5096548;28;20043;-84
2022/01/13 08:58:24;;;;;;;21.17;9.90;;;;;;;;;;5089845;28;20020;-86
2022/01/13 09:00:52;;;;;;;20.65;9.30;;;;;;;;;;5086748;28;20430;-85
2022/01/13 09:03:17;;;;;;;20.08;9.15;;;;;;;;;;5089595;28;20028;-86
2022/01/13 09:05:44;;;;;;;21.42;10.13;;;;;;;;;;5087407;28;20401;-83
2022/01/13 09:08:11;;;;;;;22.42;10.00;;;;;;;;;;5083637;28;20486;-84
2022/01/13 09:10:39;;;;;;;21.92;10.07;;;;;;;;;;5086831;28;20020;-86
2022/01/13 09:13:10;;;;;;;21.83;9.95;;;;;;;;;;5086888;28;20024;-86
2022/01/13 09:15:39;;;;;;;20.05;9.07;;;;;;;;;;5092243;28;20389;-86
2022/01/13 09:18:29;;;;;;;17.25;7.88;;;;;;;;;;5111153;28;20031;-83
2022/01/13 09:20:58;;;;;;;18.20;8.70;;;;;;;;;;5107230;28;20038;-83
2022/01/13 09:23:24;;;;;;;19.50;9.20;;;;;;;;;;5090513;28;20031;-83
2022/01/13 09:25:49;;;;;;;18.13;8.32;;;;;;;;;;5088275;28;20146;-83
2022/01/13 09:28:15;;;;;;;17.08;8.10;;;;;;;;;;5091242;28;20055;-83
2022/01/13 09:30:41;;;;;;;19.33;8.32;;;;;;;;;;5090059;28;20106;-86
2022/01/13 09:33:07;;;;;;;19.15;9.05;;;;;;;;;;5090260;28;20032;-83
2022/01/13 09:35:33;;;;;;;18.45;8.55;;;;;;;;;;5091013;28;20063;-83
2022/01/13 09:38:00;;;;;;;18.63;8.55;;;;;;;;;;5095544;28;20024;-83
2022/01/13 09:40:26;;;;;;;16.95;8.13;;;;;;;;;;5090214;28;20428;-83
2022/01/13 09:42:52;;;;;;;18.77;8.48;;;;;;;;;;5088431;28;20032;-83
2022/01/13 09:45:18;;;;;;;19.65;8.80;;;;;;;;;;5095491;28;20447;-86
2022/01/13 09:47:44;;;;;;;15.55;7.85;;;;;;;;;;5105684;28;20035;-83
2022/01/13 09:50:15;;;;;;;14.13;7.47;;;;;;;;;;5085480;28;20458;-84
2022/01/13 09:52:42;;;;;;;17.25;8.75;;;;;;;;;;5082930;28;20028;-85
2022/01/13 09:55:09;;;;;;;20.73;9.02;;;;;;;;;;5087151;28;20026;-83
2022/01/13 09:57:35;;;;;;;17.70;8.73;;;;;;;;;;5104674;28;20085;-86
2022/01/13 10:00:01;;;;;;;17.02;8.07;;;;;;;;;;5086689;28;20016;-85
2022/01/13 10:02:29;;;;;;;16.90;8.25;;;;;;;;;;5103925;28;20032;-83
2022/01/13 10:04:56;;;;;;;18.48;8.05;;;;;;;;;;5104616;28;20028;-83
2022/01/13 10:07:36;;;;;;;17.23;7.90;;;;;;;;;;5090380;28;20055;-83
2022/01/13 10:10:08;;;;;;;15.35;7.68;;;;;;;;;;5088955;28;20019;-83
2022/01/13 10:12:39;;;;;;;16.17;8.07;;;;;;;;;;5078951;28;20034;-85
2022/01/13 10:17:45;;;;;;;18.35;8.55;;;;;;;;;;5110214;27;20564;-83
2022/01/13 10:20:12;;;;;;;17.92;8.38;;;;;;;;;;5083047;28;20759;-85
2022/01/13 10:22:39;;;;;;;18.15;8.68;;;;;;;;;;5103842;28;20050;-83
2022/01/13 10:25:04;;;;;;;18.65;8.88;;;;;;;;;;5090129;28;20469;-83
2022/01/13 10:27:32;;;;;;;16.05;7.88;;;;;;;;;;5085355;28;20031;-84
2022/01/13 10:30:00;;;;;;;18.55;8.23;;;;;;;;;;5086001;28;20515;-83
2022/01/13 10:32:34;;;;;;;19.63;8.30;;;;;;;;;;5079119;28;20475;-85
2022/01/13 10:35:05;;;;;;;16.80;7.60;;;;;;;;;;5090547;28;20110;-84
2022/01/13 10:37:33;;;;;;;18.88;8.85;;;;;;;;;;5103848;28;20020;-86
2022/01/13 10:40:11;;;;;;;16.88;8.85;;;;;;;;;;5088120;28;20035;-85
2022/01/13 10:45:20;;;;;;;17.75;8.30;;;;;;;;;;5107016;28;20038;-84
2022/01/13 10:48:09;;;;;;;18.02;8.32;;;;;;;;;;5088844;28;20464;-85
2022/01/13 10:51:04;;;;;;;15.95;8.60;;;;;;;;;;5089662;28;20114;-85
2022/01/13 10:53:38;;;;;;;18.67;9.18;;;;;;;;;;5082836;28;20123;-83
2022/01/13 10:56:08;;;;;;;21.48;9.45;;;;;;;;;;5104172;28;20036;-84
2022/01/13 10:58:39;;;;;;;23.27;10.82;;;;;;;;;;5082741;28;20035;-85
2022/01/13 11:01:06;;;;;;;23.30;11.27;;;;;;;;;;5081068;28;20397;-83
2022/01/13 11:03:34;;;;;;;27.63;13.77;;;;;;;;;;5104356;28;20023;-83
2022/01/13 11:06:02;;;;;;;24.73;12.18;;;;;;;;;;5106933;28;20031;-85
2022/01/13 11:08:40;;;;;;;24.63;11.63;;;;;;;;;;5087651;28;20030;-85
2022/01/13 11:11:14;;;;;;;19.42;9.40;;;;;;;;;;5096262;28;20023;-83
2022/01/13 11:13:57;;;;;;;19.55;9.25;;;;;;;;;;5087075;28;20109;-86
2022/01/13 11:16:24;;;;;;;19.63;9.50;;;;;;;;;;5096760;28;20033;-86
2022/01/13 11:18:50;;;;;;;18.88;9.05;;;;;;;;;;5087740;28;20028;-86
2022/01/13 11:21:15;;;;;;;18.27;8.80;;;;;;;;;;5098699;28;20027;-85
2022/01/13 11:23:45;;;;;;;20.02;9.40;;;;;;;;;;5084235;28;20030;-84
2022/01/13 11:26:12;;;;;;;17.25;8.18;;;;;;;;;;5085646;28;20032;-86
2022/01/13 11:28:39;;;;;;;21.83;9.40;;;;;;;;;;5102099;28;20040;-85
2022/01/13 11:31:07;;;;;;;19.27;9.35;;;;;;;;;;5097698;28;20040;-83
2022/01/13 11:33:33;;;;;;;19.95;9.70;;;;;;;;;;5087413;28;20028;-84
2022/01/13 11:35:58;;;;;;;19.13;9.18;;;;;;;;;;5087841;28;20089;-83
2022/01/13 11:38:27;;;;;;;18.45;9.02;;;;;;;;;;5088467;28;20116;-84
2022/01/13 11:40:57;;;;;;;22.08;9.90;;;;;;;;;;5083863;28;20446;-84
2022/01/13 11:43:26;;;;;;;25.08;10.35;;;;;;;;;;5078703;28;20054;-84
2022/01/13 11:45:52;;;;;;;21.45;10.02;;;;;;;;;;5107643;28;20035;-86
2022/01/13 11:48:26;;;;;;;24.73;9.80;;;;;;;;;;5094380;28;20023;-86
2022/01/13 11:50:56;;;;;;;21.40;10.02;;;;;;;;;;5100031;28;20024;-85
2022/01/13 11:53:31;;;;;;;23.05;10.25;;;;;;;;;;5088613;28;20031;-86
2022/01/13 11:56:00;;;;;;;21.42;10.13;;;;;;;;;;5101352;28;20643;-86
2022/01/13 11:58:31;;;;;;;22.38;10.35;;;;;;;;;;5077563;28;20023;-85
2022/01/13 12:01:08;;;;;;;24.15;10.13;;;;;;;;;;5087425;28;20081;-83
2022/01/13 12:03:36;;;;;;;21.25;9.93;;;;;;;;;;5085055;28;20118;-85
2022/01/13 12:06:03;;;;;;;22.83;9.95;;;;;;;;;;5076880;28;20496;-83
2022/01/13 12:08:38;;;;;;;25.00;10.60;;;;;;;;;;5085107;28;20030;-85
2022/01/13 12:11:04;;;;;;;22.05;9.88;;;;;;;;;;5092801;28;20027;-85
2022/01/13 12:13:29;;;;;;;27.63;11.10;;;;;;;;;;5100745;28;20077;-83
2022/01/13 12:15:56;;;;;;;23.60;10.57;;;;;;;;;;5089280;28;20039;-83
2022/01/13 12:19:01;;;;;;;25.55;10.38;;;;;;;;;;5109118;28;20027;-83
2022/01/13 12:21:37;;;;;;;22.15;9.52;;;;;;;;;;5106540;28;20489;-85
2022/01/13 12:24:06;;;;;;;26.40;10.68;;;;;;;;;;5082855;28;20031;-84
2022/01/13 12:26:34;;;;;;;24.08;9.95;;;;;;;;;;5090457;28;20115;-83
2022/01/13 12:29:18;;;;;;;24.05;10.73;;;;;;;;;;5090626;28;20063;-85
2022/01/13 12:31:52;;;;;;;;;;;;;;;;;;5089952;28;20036;-85
2022/01/13 12:34:32;;;;;;;22.90;9.43;;;;;;;;;;5087737;28;19934;-83
2022/01/13 12:37:00;;;;;;;25.38;11.20;;;;;;;;;;5087325;28;20035;-85
2022/01/13 12:39:27;;;;;;;26.25;10.15;;;;;;;;;;5089621;28;20039;-82
2022/01/13 12:42:00;;;;;;;24.45;9.80;;;;;;;;;;5089143;28;20411;-85
2022/01/13 12:47:11;;;;;;;27.27;11.27;;;;;;;;;;5108078;28;20042;-83
2022/01/13 12:49:38;;;;;;;24.73;10.27;;;;;;;;;;5084084;28;20083;-85
2022/01/13 12:52:07;;;;;;;26.00;10.38;;;;;;;;;;5088999;28;20035;-85
2022/01/13 12:54:33;;;;;;;23.92;10.38;;;;;;;;;;5089091;28;20088;-84
2022/01/13 12:57:06;;;;;;;25.50;11.38;;;;;;;;;;5095165;28;20040;-86
2022/01/13 12:59:32;;;;;;;29.27;11.75;;;;;;;;;;5089665;28;20047;-83
2022/01/13 13:01:58;;;;;;;23.17;10.85;;;;;;;;;;5085595;28;20107;-83
2022/01/13 13:04:24;;;;;;;25.70;11.20;;;;;;;;;;5087167;28;20115;-86
2022/01/13 13:06:49;;;;;;;25.27;10.73;;;;;;;;;;5090678;28;20057;-86
2022/01/13 13:09:18;;;;;;;26.20;10.63;;;;;;;;;;5087552;28;20058;-86
2022/01/13 13:11:49;;;;;;;25.02;11.20;;;;;;;;;;5088868;28;20058;-86
2022/01/13 13:14:22;;;;;;;23.85;10.25;;;;;;;;;;5088888;28;20031;-84
2022/01/13 13:16:49;;;;;;;;;;;;;;;;;;5087607;28;20028;-83
2022/01/13 13:19:15;;;;;;;23.23;10.07;;;;;;;;;;5105378;28;20395;-86
2022/01/13 13:21:41;;;;;;;22.23;9.38;;;;;;;;;;5088506;28;20032;-86
2022/01/13 13:24:06;;;;;;;24.70;10.52;;;;;;;;;;5110593;28;20031;-83
2022/01/13 13:26:32;;;;;;;22.17;9.82;;;;;;;;;;5087086;28;20027;-86
2022/01/13 13:28:58;;;;;;;25.80;10.90;;;;;;;;;;5091121;28;20043;-85
2022/01/13 13:31:27;;;;;;;26.30;10.93;;;;;;;;;;5092730;28;20032;-83
2022/01/13 13:33:59;;;;;;;27.77;9.75;;;;;;;;;;5090559;28;20032;-82
2022/01/13 13:36:28;;;;;;;25.33;10.95;;;;;;;;;;5087564;28;20673;-85
2022/01/13 13:38:56;;;;;;;25.75;10.20;;;;;;;;;;5087716;28;20505;-84
2022/01/13 13:41:34;;;;;;;23.45;9.82;;;;;;;;;;5101948;28;20106;-85
2022/01/13 13:44:00;;;;;;;23.92;9.32;;;;;;;;;;5085957;28;20481;-85
2022/01/13 13:46:26;;;;;;;22.35;10.32;;;;;;;;;;5080941;28;20020;-83
2022/01/13 13:48:52;;;;;;;24.77;10.73;;;;;;;;;;5082888;28;20440;-86
2022/01/13 13:51:20;;;;;;;21.13;9.63;;;;;;;;;;5088126;28;20020;-82
2022/01/13 13:54:05;;;;;;;26.20;10.77;;;;;;;;;;5090944;28;20032;-85
2022/01/13 13:56:30;;;;;;;26.73;10.75;;;;;;;;;;5097006;28;20110;-83
2022/01/13 13:58:56;;;;;;;24.30;11.05;;;;;;;;;;5089820;28;20114;-83
2022/01/13 14:01:23;;;;;;;25.58;11.60;;;;;;;;;;5093012;28;20448;-83
2022/01/13 14:03:48;;;;;;;25.13;10.75;;;;;;;;;;5090167;28;20512;-83
2022/01/13 14:06:37;;;;;;;24.25;11.10;;;;;;;;;;5087973;28;20028;-84
2022/01/13 14:09:03;;;;;;;25.95;11.98;;;;;;;;;;5090173;28;20031;-85
2022/01/13 14:11:42;;;;;;;28.50;12.43;;;;;;;;;;5092182;28;20126;-83
2022/01/13 14:14:09;;;;;;;28.08;12.70;;;;;;;;;;5082885;28;20039;-86
2022/01/13 14:16:36;;;;;;;25.70;11.70;;;;;;;;;;5086321;28;20073;-86
2022/01/13 14:19:04;;;;;;;28.38;13.13;;;;;;;;;;5092564;28;20051;-85
2022/01/13 14:21:51;;;;;;;27.58;12.73;;;;;;;;;;5090036;28;20024;-86
2022/01/13 14:24:27;;;;;;;27.52;11.77;;;;;;;;;;5084924;28;20027;-85
2022/01/13 14:26:52;;;;;;;30.52;12.93;;;;;;;;;;5089494;28;20058;-83
2022/01/13 14:29:22;;;;;;;28.92;12.27;;;;;;;;;;5091742;28;20036;-84
2022/01/13 14:31:48;;;;;;;28.15;12.65;;;;;;;;;;5106180;28;20031;-86
2022/01/13 14:34:13;;;;;;;28.67;11.50;;;;;;;;;;5078857;28;20027;-85
2022/01/13 14:36:39;;;;;;;25.65;11.57;;;;;;;;;;5094788;28;20028;-83
2022/01/13 14:39:06;;;;;;;26.88;11.63;;;;;;;;;;5103699;28;20019;-83
2022/01/13 14:41:40;;;;;;;21.38;10.45;;;;;;;;;;5089328;28;20023;-86
2022/01/13 14:44:10;;;;;;;25.80;11.73;;;;;;;;;;5088643;28;20035;-85
2022/01/13 14:46:39;;;;;;;25.63;11.30;;;;;;;;;;5086709;28;20063;-83
2022/01/13 14:49:07;;;;;;;26.80;11.35;;;;;;;;;;5108069;28;20469;-85
2022/01/13 14:51:33;;;;;;;23.70;10.32;;;;;;;;;;5085973;28;20019;-86